Time;durP1;ratioP1;P1;durP2;ratioP2;P2;SDS_P1;SDS_P2;PMS_P1;PMS_P2;Temp;Humidity;BMP_temperature;BMP_pressure;BME280_temperature;BME280_humidity;BME280_pressure;Samples;Min_cycle;Max_cycle;Signal;HPM_P1;HPM_P2
2022/10/07 00:01:47;;;;;;;7.50;1.83;;;10.20;99.90;;;;;;5066824;28;20044;-79
2022/10/07 00:04:14;;;;;;;6.15;1.50;;;10.10;99.90;;;;;;5052618;28;20051;-79
2022/10/07 00:06:39;;;;;;;10.85;2.00;;;10.10;99.90;;;;;;5069135;28;20032;-78
2022/10/07 00:09:05;;;;;;;7.47;1.83;;;10.10;99.90;;;;;;5068948;28;20377;-79
2022/10/07 00:11:31;;;;;;;5.37;1.47;;;10.10;99.90;;;;;;5052662;28;20446;-79
2022/10/07 00:14:00;;;;;;;7.18;1.92;;;10.00;99.90;;;;;;5069168;28;20080;-80
2022/10/07 00:16:29;;;;;;;7.53;2.15;;;10.10;99.90;;;;;;5069101;28;20040;-79
2022/10/07 00:18:57;;;;;;;12.05;1.88;;;10.00;99.90;;;;;;5069409;28;20040;-79
2022/10/07 00:21:24;;;;;;;7.70;2.00;;;10.00;99.90;;;;;;5068605;28;20435;-79
2022/10/07 00:23:50;;;;;;;10.02;2.00;;;10.00;99.90;;;;;;5050008;28;20037;-79
2022/10/07 00:26:19;;;;;;;11.07;1.58;;;9.90;99.90;;;;;;5066727;28;20119;-79
2022/10/07 00:28:47;;;;;;;9.02;2.03;;;9.90;99.90;;;;;;5068969;28;20106;-80
2022/10/07 00:31:19;;;;;;;7.88;1.77;;;9.90;99.90;;;;;;5052726;28;20500;-79
2022/10/07 00:33:45;;;;;;;6.32;2.10;;;9.80;99.90;;;;;;5069116;28;20036;-80
2022/10/07 00:36:19;;;;;;;5.53;1.80;;;9.80;99.90;;;;;;5052394;28;20495;-79
2022/10/07 00:38:54;;;;;;;5.38;1.70;;;9.80;99.90;;;;;;5068806;28;20082;-79
2022/10/07 00:41:27;;;;;;;8.68;1.60;;;9.70;99.90;;;;;;5052529;28;20040;-79
2022/10/07 00:43:53;;;;;;;7.05;1.77;;;10.00;99.90;;;;;;5068499;28;20117;-79
2022/10/07 00:46:39;;;;;;;8.45;1.73;;;9.70;99.90;;;;;;5069404;28;20040;-79
2022/10/07 00:49:12;;;;;;;4.47;1.80;;;9.80;99.90;;;;;;5066430;28;20063;-79
2022/10/07 00:51:39;;;;;;;8.70;2.03;;;9.70;99.90;;;;;;5069162;28;20055;-79
2022/10/07 00:54:10;;;;;;;9.65;2.22;;;9.70;99.90;;;;;;5069280;28;20071;-79
2022/10/07 00:56:36;;;;;;;10.65;2.55;;;9.70;99.90;;;;;;5069129;28;20139;-79
2022/10/07 00:59:02;;;;;;;10.02;2.00;;;9.60;99.90;;;;;;5068234;28;20075;-79
2022/10/07 01:01:28;;;;;;;8.32;2.10;;;9.70;99.90;;;;;;5069351;28;20049;-79
2022/10/07 01:03:54;;;;;;;9.60;2.25;;;9.70;99.90;;;;;;5052364;28;20035;-79
2022/10/07 01:06:19;;;;;;;11.70;2.60;;;9.70;99.90;;;;;;5052216;28;20148;-80
2022/10/07 01:08:48;;;;;;;9.18;1.90;;;9.70;99.90;;;;;;5068819;28;20033;-79
2022/10/07 01:11:43;;;;;;;7.47;2.00;;;9.70;99.90;;;;;;5069378;28;20178;-79
2022/10/07 01:14:31;;;;;;;6.78;1.98;;;9.70;99.90;;;;;;5068237;28;20040;-79
2022/10/07 01:17:07;;;;;;;7.63;1.85;;;9.60;99.90;;;;;;5066462;28;20041;-79
2022/10/07 01:19:55;;;;;;;5.90;1.90;;;9.60;99.90;;;;;;5068942;28;20143;-79
2022/10/07 01:22:30;;;;;;;8.02;2.20;;;9.60;99.90;;;;;;5067658;28;20032;-79
2022/10/07 01:25:01;;;;;;;7.72;2.20;;;9.50;99.90;;;;;;5068898;28;20048;-79
2022/10/07 01:27:29;;;;;;;5.93;2.10;;;9.50;99.90;;;;;;5068781;28;20049;-79
2022/10/07 01:30:02;;;;;;;12.27;2.20;;;9.50;99.90;;;;;;5067620;28;20549;-79
2022/10/07 01:32:52;;;;;;;8.30;2.22;;;9.40;99.90;;;;;;5068773;28;20067;-79
2022/10/07 01:35:24;;;;;;;6.15;1.90;;;9.40;99.90;;;;;;5071745;28;20488;-79
2022/10/07 01:37:54;;;;;;;6.90;2.10;;;9.60;99.90;;;;;;5072581;28;20131;-79
2022/10/07 01:40:24;;;;;;;8.30;2.10;;;9.40;99.90;;;;;;5072413;28;20114;-78
2022/10/07 01:42:52;;;;;;;9.20;2.10;;;9.40;99.90;;;;;;5072711;28;20446;-79
2022/10/07 01:45:21;;;;;;;10.73;2.03;;;9.30;99.90;;;;;;5055681;28;20039;-79
2022/10/07 01:47:48;;;;;;;11.20;3.08;;;9.30;99.90;;;;;;5055261;28;20080;-79
2022/10/07 01:50:14;;;;;;;8.48;2.40;;;9.40;99.90;;;;;;5072091;28;20098;-79
2022/10/07 01:52:41;;;;;;;9.73;2.30;;;9.30;99.90;;;;;;5071933;28;20036;-78
2022/10/07 01:55:31;;;;;;;6.70;2.47;;;9.30;99.90;;;;;;5071891;28;20131;-78
2022/10/07 01:58:16;;;;;;;12.52;2.88;;;9.30;99.90;;;;;;5070808;28;20550;-78
2022/10/07 02:00:47;;;;;;;13.45;3.33;;;9.30;99.90;;;;;;5070449;28;20102;-79
2022/10/07 02:03:29;;;;;;;11.40;2.70;;;9.40;99.90;;;;;;5055894;28;20072;-79
2022/10/07 02:06:09;;;;;;;10.50;2.53;;;9.30;99.90;;;;;;5053648;28;20121;-78
2022/10/07 02:08:41;;;;;;;6.82;2.67;;;9.20;99.90;;;;;;5054113;28;20041;-78
2022/10/07 02:11:18;;;;;;;8.65;2.85;;;9.20;99.90;;;;;;5055380;28;20047;-79
2022/10/07 02:14:07;;;;;;;5.57;2.40;;;9.10;99.90;;;;;;5055334;28;20499;-78
2022/10/07 02:16:48;;;;;;;8.82;3.05;;;9.20;99.90;;;;;;5069890;28;20634;-79
2022/10/07 02:19:21;;;;;;;8.95;2.83;;;9.20;99.90;;;;;;5070636;28;20330;-77
2022/10/07 02:21:51;;;;;;;8.20;2.40;;;9.10;99.90;;;;;;5069261;28;20540;-78
2022/10/07 02:24:20;;;;;;;8.15;2.80;;;9.10;99.90;;;;;;5071354;28;20048;-79
2022/10/07 02:26:48;;;;;;;6.55;2.70;;;9.10;99.90;;;;;;5070833;28;20246;-80
2022/10/07 02:29:16;;;;;;;9.85;2.65;;;9.00;99.90;;;;;;5071184;28;20072;-78
2022/10/07 02:31:44;;;;;;;7.80;2.58;;;9.00;99.90;;;;;;5054748;28;20474;-79
2022/10/07 02:34:14;;;;;;;11.75;3.00;;;9.00;99.90;;;;;;5070169;28;20129;-78
2022/10/07 02:36:45;;;;;;;7.47;2.70;;;9.00;99.90;;;;;;5054662;28;20040;-78
2022/10/07 02:39:12;;;;;;;13.35;3.28;;;9.00;99.90;;;;;;5071256;28;20032;-78
2022/10/07 02:41:44;;;;;;;;;;;9.10;99.90;;;;;;5054133;28;20039;-79
2022/10/07 02:44:24;;;;;;;9.70;2.92;;;9.00;99.90;;;;;;5070981;28;20022;-79
2022/10/07 02:47:13;;;;;;;13.48;2.88;;;9.00;99.90;;;;;;5071006;28;20040;-79
2022/10/07 02:49:45;;;;;;;8.43;2.60;;;8.90;99.90;;;;;;5071021;28;20045;-79
2022/10/07 02:52:15;;;;;;;8.95;2.80;;;9.00;99.90;;;;;;5070744;28;20044;-79
2022/10/07 02:54:56;;;;;;;10.45;3.28;;;9.00;99.90;;;;;;5068887;28;20045;-79
2022/10/07 02:57:23;;;;;;;11.32;2.83;;;8.90;99.90;;;;;;5067020;28;20115;-79
2022/10/07 02:59:50;;;;;;;9.15;2.92;;;8.80;99.90;;;;;;5053946;28;20044;-79
2022/10/07 03:02:22;;;;;;;8.32;3.20;;;8.90;99.90;;;;;;5070643;28;20041;-79
2022/10/07 03:04:48;;;;;;;6.60;2.70;;;8.90;99.90;;;;;;5070248;28;20105;-79
2022/10/07 03:07:14;;;;;;;10.30;2.93;;;8.80;99.90;;;;;;5070126;28;20040;-79
2022/10/07 03:09:41;;;;;;;12.30;2.85;;;8.80;99.90;;;;;;5070784;28;20285;-79
2022/10/07 03:12:07;;;;;;;8.85;2.92;;;8.80;99.90;;;;;;5070052;28;20040;-79
2022/10/07 03:14:34;;;;;;;11.50;2.83;;;9.10;99.90;;;;;;5068698;28;20048;-79
2022/10/07 03:17:01;;;;;;;8.63;3.13;;;8.80;99.90;;;;;;5053427;28;20499;-79
2022/10/07 03:19:26;;;;;;;8.82;2.50;;;8.80;99.90;;;;;;5070045;28;20041;-79
2022/10/07 03:21:53;;;;;;;11.02;3.33;;;9.00;99.90;;;;;;5070140;28;20447;-79
2022/10/07 03:24:19;;;;;;;9.90;3.10;;;8.80;99.90;;;;;;5069658;28;20148;-77
2022/10/07 03:26:45;;;;;;;8.73;3.00;;;8.70;99.90;;;;;;5069824;28;20032;-78
2022/10/07 03:29:12;;;;;;;8.30;2.85;;;8.70;99.90;;;;;;5069386;28;20057;-79
2022/10/07 03:31:40;;;;;;;10.80;2.42;;;8.70;99.90;;;;;;5068731;28;20068;-78
2022/10/07 03:34:06;;;;;;;12.63;3.10;;;9.00;99.90;;;;;;5051520;28;20048;-80
2022/10/07 03:36:32;;;;;;;;;;;8.70;99.90;;;;;;5070681;28;20086;-79
2022/10/07 03:38:58;;;;;;;13.82;3.13;;;8.80;99.90;;;;;;5069399;28;20380;-79
2022/10/07 03:41:23;;;;;;;9.93;3.42;;;8.70;99.90;;;;;;5070233;28;20052;-79
2022/10/07 03:43:49;;;;;;;12.83;3.27;;;8.70;99.90;;;;;;5036720;28;20048;-79
2022/10/07 03:46:18;;;;;;;9.93;3.33;;;8.70;99.90;;;;;;5037100;28;20047;-79
2022/10/07 03:48:44;;;;;;;15.43;3.50;;;8.70;99.90;;;;;;5069048;28;20480;-79
2022/10/07 03:51:10;;;;;;;7.30;3.17;;;8.70;99.90;;;;;;5052650;28;20040;-79
2022/10/07 03:53:39;;;;;;;12.17;3.10;;;8.70;99.90;;;;;;5067264;28;20051;-79
2022/10/07 03:56:06;;;;;;;9.98;4.00;;;8.70;99.90;;;;;;5069542;28;20626;-79
2022/10/07 03:58:32;;;;;;;12.30;3.63;;;8.60;99.90;;;;;;5069251;28;20122;-79
2022/10/07 04:01:06;;;;;;;10.88;2.95;;;8.60;99.90;;;;;;5069582;28;20062;-79
2022/10/07 04:03:32;;;;;;;12.55;3.25;;;8.60;99.90;;;;;;5067074;28;20048;-79
2022/10/07 04:05:58;;;;;;;10.60;3.58;;;8.60;99.90;;;;;;5052982;28;20043;-79
2022/10/07 04:08:27;;;;;;;11.27;3.00;;;8.60;99.90;;;;;;5069544;28;20037;-79
2022/10/07 04:10:53;;;;;;;11.88;3.10;;;8.60;99.90;;;;;;5069597;28;20495;-79
2022/10/07 04:13:19;;;;;;;9.38;2.90;;;8.60;99.90;;;;;;5069102;28;20562;-81
2022/10/07 04:15:45;;;;;;;12.48;3.13;;;8.60;99.90;;;;;;5069318;28;20036;-80
2022/10/07 04:18:10;;;;;;;14.57;3.00;;;8.60;99.90;;;;;;5068569;28;21149;-80
2022/10/07 04:20:39;;;;;;;9.10;3.13;;;8.60;99.90;;;;;;5051859;28;20029;-80
2022/10/07 04:23:05;;;;;;;11.32;3.58;;;8.60;99.90;;;;;;5052104;28;20124;-80
2022/10/07 04:25:34;;;;;;;8.00;3.00;;;8.60;99.90;;;;;;5069254;28;20096;-79
2022/10/07 04:28:11;;;;;;;11.30;3.75;;;8.90;99.90;;;;;;5069138;28;20143;-79
2022/10/07 04:30:39;;;;;;;14.00;3.45;;;8.60;99.90;;;;;;5068992;28;20098;-78
2022/10/07 04:33:06;;;;;;;10.43;3.40;;;8.60;99.90;;;;;;5069032;28;20025;-78
2022/10/07 04:35:36;;;;;;;16.30;3.75;;;8.60;99.90;;;;;;5068938;28;20041;-79
2022/10/07 04:38:02;;;;;;;12.32;3.22;;;8.60;99.90;;;;;;5068366;28;20037;-78
2022/10/07 04:40:29;;;;;;;7.93;3.30;;;8.50;99.90;;;;;;5068597;28;20454;-78
2022/10/07 04:45:39;;;;;;;13.43;3.60;;;8.50;99.90;;;;;;5067411;28;20036;-80
2022/10/07 04:48:05;;;;;;;10.50;3.50;;;8.50;99.90;;;;;;5035471;28;20396;-79
2022/10/07 04:50:32;;;;;;;13.15;3.65;;;8.60;99.90;;;;;;5069264;28;20286;-79
2022/10/07 04:52:58;;;;;;;13.48;3.97;;;8.60;99.90;;;;;;5068580;28;20043;-78
2022/10/07 04:55:25;;;;;;;13.43;3.70;;;8.60;99.90;;;;;;5051379;28;20127;-79
2022/10/07 04:57:51;;;;;;;13.70;4.22;;;8.70;99.90;;;;;;5068489;28;20044;-79
2022/10/07 05:00:17;;;;;;;11.45;3.83;;;8.70;99.90;;;;;;5066648;28;20385;-79
2022/10/07 05:02:45;;;;;;;14.18;4.03;;;8.60;99.90;;;;;;5068688;28;20063;-79
2022/10/07 05:05:11;;;;;;;23.20;4.60;;;8.70;99.90;;;;;;5068301;28;20044;-79
2022/10/07 05:07:36;;;;;;;6.30;2.90;;;8.70;99.90;;;;;;5068563;28;20085;-79
2022/10/07 05:10:02;;;;;;;14.90;4.25;;;8.60;99.90;;;;;;5071002;28;20373;-79
2022/10/07 05:12:28;;;;;;;13.50;3.85;;;8.70;99.90;;;;;;5055979;28;20036;-79
2022/10/07 05:14:54;;;;;;;12.37;4.43;;;8.70;99.90;;;;;;5072760;28;20100;-79
2022/10/07 05:17:20;;;;;;;8.47;3.13;;;8.70;99.90;;;;;;5038425;28;20125;-79
2022/10/07 05:19:46;;;;;;;19.98;4.55;;;8.70;99.90;;;;;;5072300;28;20481;-77
2022/10/07 05:22:12;;;;;;;10.25;3.75;;;8.70;99.90;;;;;;5055159;28;20041;-78
2022/10/07 05:24:38;;;;;;;16.93;3.97;;;8.70;99.90;;;;;;5055858;28;20408;-78
2022/10/07 05:27:04;;;;;;;10.93;4.40;;;8.70;99.90;;;;;;5055500;28;20498;-79
2022/10/07 05:29:29;;;;;;;18.45;4.00;;;8.70;99.90;;;;;;5071883;28;21414;-79
2022/10/07 05:31:55;;;;;;;11.93;3.43;;;9.20;99.90;;;;;;5054853;28;20123;-78
2022/10/07 05:34:21;;;;;;;12.97;4.10;;;8.80;99.90;;;;;;5071867;28;20098;-78
2022/10/07 05:36:46;;;;;;;11.93;4.00;;;8.80;99.90;;;;;;5055449;28;20045;-78
2022/10/07 05:39:13;;;;;;;18.67;4.60;;;8.80;99.90;;;;;;5071696;28;20362;-78
2022/10/07 05:41:39;;;;;;;16.23;4.95;;;8.80;99.90;;;;;;5055092;28;20107;-78
2022/10/07 05:44:05;;;;;;;18.83;5.10;;;8.80;99.90;;;;;;5072059;28;20404;-78
2022/10/07 05:46:30;;;;;;;15.60;4.50;;;8.80;99.90;;;;;;5071888;28;20033;-79
2022/10/07 05:48:56;;;;;;;15.87;3.93;;;8.80;99.90;;;;;;5071943;28;20075;-78
2022/10/07 05:51:25;;;;;;;15.40;3.72;;;8.80;99.90;;;;;;5070782;28;20372;-79
2022/10/07 05:53:55;;;;;;;23.45;4.40;;;8.80;99.90;;;;;;5054710;28;20040;-78
2022/10/07 05:56:21;;;;;;;14.02;4.95;;;8.80;99.90;;;;;;5071173;28;20044;-78
2022/10/07 05:58:48;;;;;;;12.70;3.58;;;8.80;99.90;;;;;;5071666;28;20570;-78
2022/10/07 06:01:21;;;;;;;25.40;4.43;;;8.90;99.90;;;;;;5038621;28;20036;-79
2022/10/07 06:03:52;;;;;;;13.70;4.28;;;8.90;99.90;;;;;;5055164;28;20504;-79
2022/10/07 06:06:18;;;;;;;15.63;3.83;;;9.00;99.90;;;;;;5071476;28;20033;-79
2022/10/07 06:08:45;;;;;;;15.93;4.00;;;8.90;99.90;;;;;;5071305;28;20070;-79
2022/10/07 06:13:58;;;;;;;13.30;4.25;;;8.90;99.90;;;;;;5071973;28;20076;-78
2022/10/07 06:16:24;;;;;;;10.95;3.42;;;9.00;99.90;;;;;;5071416;28;20048;-78
2022/10/07 06:18:51;;;;;;;18.83;4.75;;;9.10;99.90;;;;;;5070998;28;20044;-78
2022/10/07 06:21:22;;;;;;;13.20;4.43;;;9.10;99.90;;;;;;5071032;28;20109;-78
2022/10/07 06:23:55;;;;;;;15.48;4.25;;;9.10;99.90;;;;;;5053359;28;20504;-78
2022/10/07 06:26:21;;;;;;;13.38;4.40;;;9.20;99.90;;;;;;5071427;28;20044;-78
2022/10/07 06:28:47;;;;;;;14.18;4.60;;;9.20;99.90;;;;;;5071124;28;20512;-78
2022/10/07 06:31:16;;;;;;;15.05;4.45;;;9.30;99.90;;;;;;5070600;28;20043;-79
2022/10/07 06:33:42;;;;;;;17.60;4.85;;;9.40;99.90;;;;;;5053711;28;20136;-76
2022/10/07 06:36:13;;;;;;;15.82;4.00;;;9.50;99.90;;;;;;5070107;28;20108;-76
2022/10/07 06:38:44;;;;;;;12.25;3.75;;;9.80;99.90;;;;;;5052994;28;20124;-76
2022/10/07 06:41:10;;;;;;;16.40;3.83;;;9.70;99.90;;;;;;5069482;28;20064;-76
2022/10/07 06:43:36;;;;;;;14.90;4.30;;;9.90;99.90;;;;;;5065009;28;20515;-76
2022/10/07 06:46:03;;;;;;;14.52;5.28;;;10.10;99.90;;;;;;5069759;28;20802;-75
2022/10/07 06:48:31;;;;;;;11.60;4.53;;;10.20;99.90;;;;;;5069825;28;20055;-75
2022/10/07 06:50:58;;;;;;;12.88;4.10;;;10.30;99.90;;;;;;5070021;28;20032;-75
2022/10/07 06:53:25;;;;;;;12.48;4.07;;;10.40;99.90;;;;;;5052913;28;20044;-75
2022/10/07 06:55:53;;;;;;;12.38;3.97;;;10.50;99.90;;;;;;5053445;28;20369;-75
2022/10/07 06:58:23;;;;;;;13.38;4.22;;;10.60;99.90;;;;;;5053245;28;20044;-76
2022/10/07 07:00:52;;;;;;;10.77;3.35;;;10.80;99.90;;;;;;5069804;28;20055;-76
2022/10/07 07:03:18;;;;;;;14.10;4.00;;;10.80;99.90;;;;;;5050676;28;20400;-76
2022/10/07 07:05:45;;;;;;;16.50;4.40;;;11.00;99.90;;;;;;5069566;28;20029;-76
2022/10/07 07:08:11;;;;;;;15.35;3.42;;;11.00;99.90;;;;;;5069651;28;20048;-77
2022/10/07 07:10:38;;;;;;;12.82;3.35;;;11.20;99.90;;;;;;5069696;28;20464;-76
2022/10/07 07:13:06;;;;;;;13.25;4.45;;;11.40;99.90;;;;;;5067087;28;20094;-76
2022/10/07 07:15:33;;;;;;;14.73;3.97;;;11.40;99.90;;;;;;5069560;28;20036;-77
2022/10/07 07:17:59;;;;;;;10.52;3.40;;;11.60;99.90;;;;;;5069476;28;20052;-76
2022/10/07 07:20:25;;;;;;;9.23;2.65;;;11.80;99.90;;;;;;5050508;28;20123;-76
2022/10/07 07:22:51;;;;;;;13.38;3.50;;;11.90;99.90;;;;;;5069405;28;20135;-76
2022/10/07 07:25:18;;;;;;;9.75;3.15;;;12.00;99.90;;;;;;5052814;28;20094;-76
2022/10/07 07:27:46;;;;;;;14.43;3.55;;;12.10;99.90;;;;;;5069136;28;20076;-76
2022/10/07 07:30:12;;;;;;;10.98;3.50;;;12.20;99.90;;;;;;5052558;28;20455;-76
2022/10/07 07:32:38;;;;;;;;;;;12.30;99.90;;;;;;5068102;28;20115;-76
2022/10/07 07:35:05;;;;;;;14.43;3.65;;;12.40;99.90;;;;;;5068721;28;20015;-76
2022/10/07 07:37:31;;;;;;;10.65;2.85;;;12.60;99.90;;;;;;5051183;28;20052;-76
2022/10/07 07:39:57;;;;;;;10.40;3.70;;;12.90;99.90;;;;;;5051837;28;20503;-76
2022/10/07 07:42:22;;;;;;;11.03;3.30;;;13.60;99.90;;;;;;5051696;28;20071;-76
2022/10/07 07:44:48;;;;;;;11.73;2.75;;;14.00;99.90;;;;;;5067980;28;20040;-77
2022/10/07 07:47:17;;;;;;;12.07;3.28;;;14.50;99.90;;;;;;5069163;28;20040;-77
2022/10/07 07:49:42;;;;;;;15.65;3.33;;;14.90;99.90;;;;;;5068794;28;20032;-77
2022/10/07 07:52:09;;;;;;;10.70;3.10;;;15.30;99.90;;;;;;5052555;28;20032;-77
2022/10/07 07:54:40;;;;;;;9.85;3.33;;;15.70;99.90;;;;;;5052382;28;20792;-77
2022/10/07 07:57:06;;;;;;;18.65;3.15;;;16.10;99.90;;;;;;5051175;28;20041;-77
2022/10/07 07:59:32;;;;;;;12.65;3.00;;;16.40;99.90;;;;;;5052360;28;20494;-77
2022/10/07 08:01:58;;;;;;;9.38;2.88;;;16.70;99.90;;;;;;5068745;28;20124;-75
2022/10/07 08:04:24;;;;;;;12.00;2.75;;;16.90;99.90;;;;;;5068147;28;20036;-75
2022/10/07 08:06:51;;;;;;;10.50;2.58;;;17.20;99.90;;;;;;5068772;28;20536;-76
2022/10/07 08:09:16;;;;;;;10.88;2.67;;;17.30;99.90;;;;;;5068668;28;20032;-76
2022/10/07 08:11:45;;;;;;;12.18;3.08;;;17.50;99.90;;;;;;5068422;28;20052;-76
2022/10/07 08:14:15;;;;;;;10.60;3.15;;;17.60;99.90;;;;;;5052320;28;20040;-75
2022/10/07 08:16:42;;;;;;;7.00;2.72;;;17.80;99.90;;;;;;5050517;28;20040;-77
2022/10/07 08:19:09;;;;;;;11.05;2.58;;;17.90;99.90;;;;;;5068550;28;20481;-78
2022/10/07 08:21:35;;;;;;;14.95;2.90;;;18.20;99.90;;;;;;5051564;28;20040;-77
2022/10/07 08:24:03;;;;;;;12.85;2.92;;;18.40;99.90;;;;;;5051720;28;20036;-77
2022/10/07 08:26:31;;;;;;;10.07;2.28;;;18.70;99.90;;;;;;5068584;28;20051;-77
2022/10/07 08:28:58;;;;;;;11.88;2.80;;;19.00;99.90;;;;;;5068265;28;20128;-77
2022/10/07 08:31:28;;;;;;;10.25;2.55;;;18.80;99.90;;;;;;5052057;28;20045;-77
2022/10/07 08:33:57;;;;;;;11.00;2.60;;;18.80;99.90;;;;;;5050542;28;20097;-77
2022/10/07 08:36:25;;;;;;;15.45;3.10;;;18.90;99.90;;;;;;5035772;28;20488;-77
2022/10/07 08:38:50;;;;;;;12.18;2.78;;;19.20;99.90;;;;;;5068369;28;20048;-77
2022/10/07 08:41:38;;;;;;;9.85;2.55;;;19.10;99.90;;;;;;5052089;28;20062;-77
2022/10/07 08:44:06;;;;;;;;;;;19.30;99.90;;;;;;5069025;28;20048;-77
2022/10/07 08:46:36;;;;;;;11.57;2.80;;;19.40;99.90;;;;;;5072429;28;20379;-77
2022/10/07 08:49:13;;;;;;;13.20;2.70;;;19.60;99.90;;;;;;5072540;28;20076;-77
2022/10/07 08:51:47;;;;;;;11.30;2.20;;;19.70;99.90;;;;;;5072307;28;20060;-77
2022/10/07 08:54:15;;;;;;;10.35;2.58;;;20.00;99.90;;;;;;5072984;28;20028;-78
2022/10/07 08:56:42;;;;;;;11.55;2.85;;;20.20;99.90;;;;;;5055536;28;20039;-77
2022/10/07 08:59:27;;;;;;;11.00;2.30;;;20.30;99.90;;;;;;5072435;28;20036;-77
2022/10/07 09:02:30;;;;;;;8.30;2.17;;;20.60;99.90;;;;;;5055036;28;20041;-78
2022/10/07 09:05:15;;;;;;;7.78;2.20;;;20.80;99.90;;;;;;5070080;28;20098;-78
2022/10/07 09:07:48;;;;;;;9.32;2.85;;;20.80;99.90;;;;;;5055642;28;20493;-78
2022/10/07 09:10:48;;;;;;;8.07;2.58;;;20.70;99.90;;;;;;5072505;28;20039;-78
2022/10/07 09:13:34;;;;;;;8.35;2.33;;;20.70;99.90;;;;;;5061478;28;20048;-78
2022/10/07 09:16:15;;;;;;;10.27;2.40;;;21.00;99.90;;;;;;5072337;28;20446;-77
2022/10/07 09:18:55;;;;;;;9.27;2.35;;;21.10;99.90;;;;;;5070559;28;20044;-77
2022/10/07 09:21:27;;;;;;;9.63;2.33;;;21.10;99.90;;;;;;5072115;28;20044;-78
2022/10/07 09:24:13;;;;;;;8.10;2.30;;;21.30;99.90;;;;;;5071707;28;20446;-77
2022/10/07 09:26:39;;;;;;;10.90;2.50;;;21.60;99.90;;;;;;5071771;28;20036;-77
2022/10/07 09:29:06;;;;;;;13.20;2.60;;;21.60;99.90;;;;;;5071919;28;20123;-78
2022/10/07 09:31:32;;;;;;;12.52;2.60;;;21.80;99.90;;;;;;5071744;28;20208;-78
2022/10/07 09:33:58;;;;;;;9.95;2.25;;;21.70;99.90;;;;;;5072011;28;20508;-78
2022/10/07 09:36:25;;;;;;;11.52;2.70;;;21.40;99.90;;;;;;5070850;28;20072;-78
2022/10/07 09:38:52;;;;;;;10.45;2.08;;;21.30;99.90;;;;;;5071660;28;20040;-78
2022/10/07 09:41:37;;;;;;;8.20;2.20;;;21.50;99.90;;;;;;5055879;28;20037;-78
2022/10/07 09:44:14;;;;;;;10.95;2.38;;;21.40;99.90;;;;;;5055273;28;20036;-78
2022/10/07 09:46:40;;;;;;;11.88;2.25;;;21.70;99.90;;;;;;5070162;28;20128;-78
2022/10/07 09:49:06;;;;;;;8.52;2.65;;;21.80;99.90;;;;;;5071026;28;20049;-77
2022/10/07 09:51:34;;;;;;;9.57;2.22;;;21.80;99.90;;;;;;5053374;28;20032;-77
2022/10/07 09:54:17;;;;;;;12.57;2.20;;;21.80;99.90;;;;;;5071361;28;20036;-77
2022/10/07 09:56:45;;;;;;;8.73;2.10;;;22.10;99.90;;;;;;5071183;28;20040;-78
2022/10/07 09:59:35;;;;;;;13.15;2.30;;;22.40;99.90;;;;;;5055024;28;20032;-78
2022/10/07 10:02:14;;;;;;;14.18;2.70;;;22.70;99.90;;;;;;5070632;28;20040;-78
2022/10/07 10:04:55;;;;;;;10.73;2.33;;;22.70;99.90;;;;;;5071450;28;20443;-78
2022/10/07 10:07:29;;;;;;;11.93;2.38;;;22.90;99.90;;;;;;5061594;28;20028;-78
2022/10/07 10:10:02;;;;;;;11.35;2.42;;;23.20;99.90;;;;;;5054226;28;20037;-76
2022/10/07 10:12:31;;;;;;;8.75;1.90;;;23.40;99.90;;;;;;5071288;28;20098;-77
2022/10/07 10:14:58;;;;;;;9.02;2.25;;;23.30;99.90;;;;;;5070677;28;20049;-77
2022/10/07 10:17:30;;;;;;;10.27;2.55;;;23.00;99.90;;;;;;5071130;28;20119;-77
2022/10/07 10:20:45;;;;;;;9.70;2.30;;;22.40;99.90;;;;;;5070950;28;20370;-76
2022/10/07 10:23:25;;;;;;;10.95;2.75;;;21.60;99.90;;;;;;5070586;28;20044;-77
2022/10/07 10:26:28;;;;;;;9.90;2.00;;;20.90;99.90;;;;;;5070644;28;20492;-77
2022/10/07 10:29:24;;;;;;;8.77;2.47;;;20.40;99.90;;;;;;5070564;28;20051;-76
2022/10/07 10:32:12;;;;;;;8.98;1.90;;;20.10;99.90;;;;;;5068985;28;20044;-77
2022/10/07 10:34:59;;;;;;;11.15;2.45;;;20.30;99.90;;;;;;5070642;28;20115;-77
2022/10/07 10:38:03;;;;;;;9.25;2.40;;;20.80;99.90;;;;;;5071157;28;20041;-77
2022/10/07 10:40:46;;;;;;;12.20;2.03;;;21.70;99.90;;;;;;5053750;28;20036;-77
2022/10/07 10:43:19;;;;;;;8.10;2.03;;;22.40;99.90;;;;;;5069137;28;20039;-77
2022/10/07 10:46:41;;;;;;;8.60;1.90;;;22.80;99.90;;;;;;5069179;28;20052;-77
2022/10/07 10:49:14;;;;;;;10.63;2.33;;;23.10;99.90;;;;;;5013040;28;20033;-77
2022/10/07 10:51:54;;;;;;;8.93;1.88;;;23.40;99.90;;;;;;5013310;28;20041;-77
2022/10/07 10:54:26;;;;;;;9.18;1.73;;;23.40;99.90;;;;;;5066835;28;20036;-77
2022/10/07 10:57:20;;;;;;;9.30;1.80;;;23.60;99.90;;;;;;5070946;28;20495;-77
2022/10/07 10:59:57;;;;;;;9.13;1.90;;;23.70;99.90;;;;;;5070316;28;20482;-77
2022/10/07 11:02:48;;;;;;;9.00;2.25;;;23.40;99.90;;;;;;5071539;28;20075;-76
2022/10/07 11:05:16;;;;;;;8.48;2.30;;;23.40;99.90;;;;;;5069232;28;20037;-77
2022/10/07 11:07:50;;;;;;;9.27;1.77;;;23.30;99.90;;;;;;5069941;28;20040;-76
2022/10/07 11:10:34;;;;;;;7.47;1.60;;;23.40;99.90;;;;;;5068050;28;20040;-76
2022/10/07 11:13:24;;;;;;;7.35;1.65;;;23.30;99.90;;;;;;5051917;28;20041;-76
2022/10/07 11:15:55;;;;;;;8.13;1.70;;;23.50;99.90;;;;;;5051104;28;20067;-75
2022/10/07 11:18:59;;;;;;;9.18;1.85;;;23.80;99.90;;;;;;5067627;28;20041;-76
2022/10/07 11:21:33;;;;;;;11.80;1.92;;;23.90;99.90;;;;;;5069485;28;20044;-76
2022/10/07 11:24:04;;;;;;;10.35;1.85;;;24.10;99.90;;;;;;5068717;28;20193;-76
2022/10/07 11:26:45;;;;;;;8.52;2.05;;;23.90;99.90;;;;;;5064230;28;20038;-76
2022/10/07 11:29:24;;;;;;;7.50;1.58;;;23.60;99.90;;;;;;5050933;28;20051;-76
2022/10/07 11:32:09;;;;;;;8.82;1.55;;;23.70;99.90;;;;;;5069112;28;20045;-76
2022/10/07 11:34:51;;;;;;;7.85;1.70;;;24.50;99.90;;;;;;5068664;28;20040;-76
2022/10/07 11:37:38;;;;;;;9.30;1.70;;;24.30;99.70;;;;;;5069275;28;20537;-76
2022/10/07 11:40:06;;;;;;;7.53;1.27;;;24.50;99.70;;;;;;5067782;28;20040;-77
2022/10/07 11:42:39;;;;;;;9.98;1.88;;;24.60;99.90;;;;;;5052597;28;20044;-77
2022/10/07 11:45:22;;;;;;;8.73;1.77;;;24.90;99.60;;;;;;5050633;28;20079;-76
2022/10/07 11:47:54;;;;;;;6.40;1.73;;;24.50;99.90;;;;;;5068383;28;20040;-77
2022/10/07 11:50:25;;;;;;;8.65;1.67;;;24.00;99.90;;;;;;5082347;28;20037;-77
2022/10/07 11:52:54;;;;;;;6.63;1.50;;;23.50;99.90;;;;;;5068872;28;20049;-77
2022/10/07 11:55:23;;;;;;;8.35;2.05;;;23.40;99.90;;;;;;5069393;28;20065;-77
2022/10/07 11:57:54;;;;;;;8.38;1.75;;;23.20;99.90;;;;;;5068610;28;20045;-76
2022/10/07 12:00:38;;;;;;;11.82;1.70;;;22.90;99.90;;;;;;5067009;28;20388;-77
2022/10/07 12:03:24;;;;;;;7.28;1.58;;;23.10;99.90;;;;;;5052237;28;20040;-78
2022/10/07 12:05:49;;;;;;;9.05;1.67;;;23.10;99.90;;;;;;5055934;28;20103;-77
2022/10/07 12:08:31;;;;;;;8.32;1.77;;;22.50;99.90;;;;;;5068538;28;20048;-77
2022/10/07 12:11:13;;;;;;;9.68;1.60;;;22.00;99.90;;;;;;5068381;28;20384;-77
2022/10/07 12:13:48;;;;;;;9.43;1.83;;;21.50;99.90;;;;;;5068674;28;20037;-76
2022/10/07 12:16:23;;;;;;;7.88;1.63;;;21.20;99.90;;;;;;5067940;28;20113;-76
2022/10/07 12:19:05;;;;;;;7.70;1.75;;;21.10;99.90;;;;;;5068107;28;20544;-76
2022/10/07 12:21:59;;;;;;;7.47;2.00;;;21.00;99.90;;;;;;5068424;28;20047;-76
2022/10/07 12:24:36;;;;;;;13.32;1.98;;;21.00;99.90;;;;;;5067951;28;20036;-76
2022/10/07 12:27:08;;;;;;;8.70;2.17;;;21.00;99.90;;;;;;5065114;28;20059;-77
2022/10/07 12:29:57;;;;;;;9.55;1.98;;;21.00;99.90;;;;;;5068509;28;20045;-77
2022/10/07 12:32:38;;;;;;;9.63;2.03;;;21.10;99.90;;;;;;5068316;28;20488;-77
2022/10/07 12:35:28;;;;;;;11.43;2.17;;;21.10;99.90;;;;;;5051415;28;20052;-77
2022/10/07 12:38:09;;;;;;;10.40;1.63;;;21.30;99.90;;;;;;5051216;28;20064;-77
2022/10/07 12:40:36;;;;;;;8.88;1.70;;;21.10;99.90;;;;;;5068050;28;20043;-76
2022/10/07 12:43:17;;;;;;;8.18;1.52;;;21.00;99.90;;;;;;5034719;28;20036;-76
2022/10/07 12:45:43;;;;;;;11.07;1.80;;;21.20;99.90;;;;;;5068110;28;20048;-77
2022/10/07 12:48:19;;;;;;;9.73;2.05;;;21.30;99.90;;;;;;5068323;28;20066;-77
2022/10/07 12:50:46;;;;;;;8.77;1.45;;;21.40;99.90;;;;;;5066570;28;20040;-77
2022/10/07 12:53:12;;;;;;;12.57;2.00;;;21.00;99.90;;;;;;5068330;28;20032;-78
2022/10/07 12:55:43;;;;;;;7.32;1.70;;;20.80;99.90;;;;;;5069068;28;20426;-78
2022/10/07 13:02:07;;;;;;;9.02;1.88;;;20.30;99.90;;;;;;5069270;28;20071;-78
2022/10/07 13:05:02;;;;;;;7.40;1.42;;;20.20;99.90;;;;;;5029409;28;20047;-78
2022/10/07 13:07:53;;;;;;;6.35;1.50;;;20.20;99.90;;;;;;5068915;28;20123;-79
2022/10/07 13:10:46;;;;;;;10.50;1.73;;;20.00;99.90;;;;;;5060090;28;20045;-78
2022/10/07 13:13:18;;;;;;;8.18;1.48;;;19.80;99.90;;;;;;5068918;28;20484;-79
2022/10/07 13:16:13;;;;;;;7.28;1.60;;;19.90;99.90;;;;;;5069404;28;20048;-78
2022/10/07 13:18:43;;;;;;;8.63;1.40;;;20.00;99.90;;;;;;5069165;28;20515;-79
2022/10/07 13:21:35;;;;;;;7.60;1.83;;;19.90;99.90;;;;;;5066746;28;20041;-79
2022/10/07 13:24:01;;;;;;;12.45;2.42;;;19.70;99.90;;;;;;5063044;28;20061;-78